Time;durP1;ratioP1;P1;durP2;ratioP2;P2;SDS_P1;SDS_P2;PMS_P1;PMS_P2;Temp;Humidity;BMP_temperature;BMP_pressure;BME280_temperature;BME280_humidity;BME280_pressure;Samples;Min_cycle;Max_cycle;Signal;HPM_P1;HPM_P2
2022/07/30 00:01:55;;;;;;;2.30;1.10;;;;;;;17.17;55.99;99711.25;5055962;28;20555;-70
2022/07/30 00:04:23;;;;;;;2.40;1.42;;;;;;;17.15;56.17;99706.00;5064291;28;20051;-78
2022/07/30 00:06:50;;;;;;;5.45;1.70;;;;;;;17.14;56.14;99709.19;5076267;28;20055;-78
2022/07/30 00:09:17;;;;;;;2.88;1.52;;;;;;;17.13;56.14;99715.97;5058767;28;20060;-77
2022/07/30 00:11:44;;;;;;;2.72;1.45;;;;;;;17.10;56.54;99706.31;5076421;28;20570;-77
2022/07/30 00:14:11;;;;;;;3.55;1.30;;;;;;;17.07;56.71;99709.03;5077094;28;20135;-78
2022/07/30 00:16:38;;;;;;;4.82;2.08;;;;;;;17.02;56.84;99703.75;5076090;28;20055;-77
2022/07/30 00:19:05;;;;;;;4.63;1.63;;;;;;;17.03;57.12;99710.97;5075971;28;20411;-76
2022/07/30 00:21:34;;;;;;;4.78;1.70;;;;;;;17.00;56.94;99708.91;5075663;28;20140;-77
2022/07/30 00:24:07;;;;;;;3.88;2.17;;;;;;;16.97;56.89;99706.84;5075700;28;20103;-77
2022/07/30 00:26:34;;;;;;;11.77;1.45;;;;;;;16.95;57.22;99703.56;5057776;28;20090;-77
2022/07/30 00:29:02;;;;;;;2.65;1.30;;;;;;;16.96;57.28;99705.22;5058165;28;20151;-77
2022/07/30 00:31:29;;;;;;;7.25;1.30;;;;;;;16.91;57.30;99711.13;5076137;28;20078;-77
2022/07/30 00:33:56;;;;;;;4.63;1.48;;;;;;;16.87;57.59;99708.25;5076083;28;20040;-70
2022/07/30 00:36:23;;;;;;;6.75;1.50;;;;;;;16.83;58.10;99712.16;5075631;28;20059;-68
2022/07/30 00:38:50;;;;;;;3.00;1.40;;;;;;;16.84;57.98;99708.19;5069161;28;20044;-68
2022/07/30 00:41:17;;;;;;;2.33;1.35;;;;;;;16.84;58.22;99708.19;5055410;28;20061;-68
2022/07/30 00:43:44;;;;;;;2.72;1.50;;;;;;;16.83;58.08;99698.13;5055243;28;20064;-68
2022/07/30 00:46:11;;;;;;;2.90;1.48;;;;;;;16.85;58.08;99704.19;5055728;28;20579;-69
2022/07/30 00:48:38;;;;;;;5.93;3.55;;;;;;;16.83;58.43;99700.91;5055498;28;20075;-68
2022/07/30 00:51:05;;;;;;;17.05;1.73;;;;;;;16.80;58.40;99710.09;5055232;28;20114;-68
2022/07/30 00:53:33;;;;;;;2.08;1.40;;;;;;;16.77;58.77;99696.78;5037684;28;20381;-67
2022/07/30 00:56:01;;;;;;;7.75;1.80;;;;;;;16.73;58.72;99699.53;5054894;28;20061;-67
2022/07/30 00:58:28;;;;;;;8.25;1.67;;;;;;;16.71;59.04;99696.28;5055295;28;20056;-67
2022/07/30 01:00:55;;;;;;;5.32;2.15;;;;;;;16.66;59.04;99693.75;5036349;28;20556;-67
2022/07/30 01:03:23;;;;;;;3.40;1.40;;;;;;;16.64;59.06;99695.31;5054857;28;20504;-67
2022/07/30 01:05:50;;;;;;;3.13;1.73;;;;;;;16.67;58.96;99703.00;5035043;28;20476;-68
2022/07/30 01:08:17;;;;;;;4.38;1.45;;;;;;;16.68;59.20;99704.63;5016924;28;20489;-68
2022/07/30 01:10:44;;;;;;;5.40;1.40;;;;;;;16.57;59.54;99693.16;5017243;28;20054;-69
2022/07/30 01:13:11;;;;;;;3.47;1.50;;;;;;;16.56;60.10;99696.34;5034815;28;20046;-69
2022/07/30 01:15:39;;;;;;;4.15;1.42;;;;;;;16.51;60.00;99689.00;5035011;28;20136;-69
2022/07/30 01:18:10;;;;;;;4.68;2.03;;;;;;;16.57;59.76;99697.94;5035046;28;20148;-68
2022/07/30 01:20:48;;;;;;;8.20;1.50;;;;;;;16.54;59.84;99693.06;5034927;28;20519;-68
2022/07/30 01:23:31;;;;;;;3.72;1.63;;;;;;;16.52;60.00;99689.84;5034423;28;20081;-68
2022/07/30 01:26:04;;;;;;;4.53;1.55;;;;;;;16.49;60.18;99697.00;5034693;28;20079;-69
2022/07/30 01:28:36;;;;;;;4.45;1.65;;;;;;;16.43;60.26;99688.06;5044329;28;20411;-68
2022/07/30 01:31:05;;;;;;;7.10;1.70;;;;;;;16.46;60.28;99691.31;5054579;28;20060;-68
2022/07/30 01:33:36;;;;;;;4.00;1.60;;;;;;;16.42;59.95;99691.19;5054230;28;20408;-69
2022/07/30 01:36:05;;;;;;;5.80;1.50;;;;;;;16.41;60.19;99695.19;5054334;28;20080;-69
2022/07/30 01:38:35;;;;;;;8.98;1.52;;;;;;;16.43;60.13;99693.66;5054358;28;20091;-68
2022/07/30 01:41:07;;;;;;;13.15;1.75;;;;;;;16.40;60.07;99694.38;5054907;28;20055;-69
2022/07/30 01:43:35;;;;;;;7.82;1.75;;;;;;;16.40;60.24;99697.19;5054060;28;20052;-69
2022/07/30 01:46:03;;;;;;;5.45;1.58;;;;;;;16.39;60.29;99695.56;5054416;28;20059;-68
2022/07/30 01:48:34;;;;;;;7.90;2.72;;;;;;;16.40;59.95;99696.34;5053900;28;20057;-68
2022/07/30 01:51:05;;;;;;;12.77;1.70;;;;;;;16.39;60.18;99695.56;5053976;28;20056;-76
2022/07/30 01:53:40;;;;;;;10.55;1.98;;;;;;;16.40;59.77;99700.00;5054189;28;20168;-75
2022/07/30 01:56:10;;;;;;;2.67;1.52;;;;;;;16.37;60.12;99700.72;5054492;28;20080;-75
2022/07/30 01:58:39;;;;;;;5.25;1.50;;;;;;;16.32;60.38;99698.19;5053845;28;20411;-77
2022/07/30 02:01:06;;;;;;;2.72;1.50;;;;;;;16.30;60.50;99702.56;5054184;28;20141;-76
2022/07/30 02:03:34;;;;;;;7.20;2.42;;;;;;;16.30;60.43;99703.38;5054573;28;20486;-76
2022/07/30 02:06:12;;;;;;;4.75;1.63;;;;;;;16.36;60.23;99704.72;5074330;28;20147;-76
2022/07/30 02:08:53;;;;;;;2.22;1.20;;;;;;;16.36;60.15;99701.91;5073926;28;20135;-76
2022/07/30 02:14:12;;;;;;;6.97;1.67;;;;;;;16.34;59.99;99701.44;5073138;28;20071;-76
2022/07/30 02:16:42;;;;;;;3.35;1.52;;;;;;;16.38;60.22;99696.72;5073806;28;20048;-76
2022/07/30 02:19:13;;;;;;;3.03;1.20;;;;;;;16.38;60.26;99696.72;5073459;28;20048;-68
2022/07/30 02:22:04;;;;;;;7.10;1.38;;;;;;;16.35;60.36;99700.25;5073300;28;20393;-67
2022/07/30 02:24:36;;;;;;;7.47;1.67;;;;;;;16.36;60.02;99693.50;5066965;28;20057;-68
2022/07/30 02:27:14;;;;;;;4.03;1.35;;;;;;;16.38;59.62;99707.94;5055094;28;20059;-68
2022/07/30 02:29:43;;;;;;;5.45;1.60;;;;;;;16.38;60.02;99707.16;5073549;28;20056;-68
2022/07/30 02:32:13;;;;;;;4.10;1.20;;;;;;;16.40;59.75;99711.22;5073149;28;20043;-67
2022/07/30 02:34:47;;;;;;;2.53;1.50;;;;;;;16.40;60.08;99710.41;5073222;28;20049;-67
2022/07/30 02:37:15;;;;;;;7.25;1.58;;;;;;;16.40;59.75;99716.84;5055012;28;20423;-68
2022/07/30 02:39:42;;;;;;;2.60;1.17;;;;;;;16.41;59.49;99718.44;5073159;28;20067;-69
2022/07/30 02:42:13;;;;;;;1.65;1.10;;;;;;;16.45;59.46;99712.97;5038702;28;20084;-67
2022/07/30 02:44:42;;;;;;;6.82;1.52;;;;;;;16.46;59.45;99719.41;5073059;28;20415;-69
2022/07/30 02:47:11;;;;;;;3.63;1.63;;;;;;;16.45;59.67;99715.75;5072795;28;20084;-68
2022/07/30 02:49:39;;;;;;;3.30;1.53;;;;;;;16.43;59.26;99718.09;5073100;28;20416;-67
2022/07/30 02:52:11;;;;;;;2.20;1.25;;;;;;;16.48;59.43;99722.63;5072726;28;20293;-67
2022/07/30 02:54:42;;;;;;;6.22;2.15;;;;;;;16.50;59.32;99718.28;5055872;28;20052;-68
2022/07/30 02:57:10;;;;;;;5.90;1.38;;;;;;;16.56;58.90;99732.84;5053273;28;20057;-67
2022/07/30 02:59:40;;;;;;;3.25;1.17;;;;;;;16.61;58.98;99732.56;5052574;28;20110;-69
2022/07/30 03:02:09;;;;;;;3.13;1.70;;;;;;;16.59;58.86;99737.72;5052800;28;20057;-68
2022/07/30 03:04:37;;;;;;;9.60;1.60;;;;;;;16.61;59.10;99727.75;5034727;28;20055;-68
2022/07/30 03:07:06;;;;;;;5.43;1.23;;;;;;;16.65;58.67;99737.09;5052622;28;20063;-68
2022/07/30 03:09:37;;;;;;;5.22;1.75;;;;;;;16.69;58.39;99729.53;5052670;28;20164;-67
2022/07/30 03:12:18;;;;;;;5.60;1.35;;;;;;;16.71;58.29;99731.97;5052567;28;20578;-67
2022/07/30 03:14:45;;;;;;;2.50;1.30;;;;;;;16.73;58.28;99726.81;5035346;28;20504;-68
2022/07/30 03:17:14;;;;;;;5.18;1.60;;;;;;;16.74;58.48;99726.44;5052925;28;20053;-67
2022/07/30 03:19:43;;;;;;;4.57;1.75;;;;;;;16.79;58.18;99722.53;5051750;28;20132;-68
2022/07/30 03:22:13;;;;;;;8.97;1.77;;;;;;;16.85;57.85;99721.03;5052703;28;20083;-66
2022/07/30 03:24:43;;;;;;;6.68;1.27;;;;;;;16.88;58.17;99723.13;5052089;28;20048;-67
2022/07/30 03:27:12;;;;;;;3.38;1.30;;;;;;;16.90;57.71;99735.59;5052157;28;20084;-68
2022/07/30 03:29:43;;;;;;;2.75;1.30;;;;;;;17.00;57.46;99737.00;5052805;28;20083;-68
2022/07/30 03:32:14;;;;;;;7.28;1.65;;;;;;;17.07;57.37;99737.97;5034811;28;20049;-68
2022/07/30 03:34:45;;;;;;;6.47;1.20;;;;;;;17.22;56.95;99736.25;5052489;28;20419;-68
2022/07/30 03:37:13;;;;;;;4.80;1.98;;;;;;;17.37;56.18;99738.13;5052310;28;20143;-68
2022/07/30 03:39:40;;;;;;;8.13;1.30;;;;;;;17.53;55.83;99736.09;5052526;28;20057;-68
2022/07/30 03:42:08;;;;;;;8.18;1.30;;;;;;;17.63;55.49;99736.28;5052103;28;20045;-68
2022/07/30 03:44:36;;;;;;;3.22;1.70;;;;;;;17.66;55.51;99729.91;5052403;28;20048;-68
2022/07/30 03:47:05;;;;;;;4.90;1.40;;;;;;;17.73;54.99;99737.63;5052441;28;20049;-68
2022/07/30 03:49:33;;;;;;;3.08;1.45;;;;;;;17.69;55.00;99743.22;5034770;28;20049;-69
2022/07/30 03:52:00;;;;;;;2.35;1.38;;;;;;;17.70;55.34;99746.81;5052024;28;20416;-69
2022/07/30 03:54:29;;;;;;;2.65;1.42;;;;;;;17.78;55.03;99748.59;5052549;28;20484;-77
2022/07/30 03:56:56;;;;;;;5.60;1.40;;;;;;;17.84;54.65;99747.91;5052148;28;20588;-76
2022/07/30 03:59:23;;;;;;;7.25;1.55;;;;;;;17.87;54.56;99746.31;5044187;28;20049;-76
2022/07/30 04:01:53;;;;;;;3.45;1.63;;;;;;;17.89;54.26;99746.78;5034768;28;20143;-76
2022/07/30 04:04:20;;;;;;;2.65;1.50;;;;;;;17.86;54.15;99741.91;5051574;28;20088;-76
2022/07/30 04:06:47;;;;;;;6.65;1.38;;;;;;;17.89;53.94;99743.97;5051837;28;20055;-76
2022/07/30 04:09:16;;;;;;;8.00;1.30;;;;;;;17.92;53.73;99737.56;5052523;28;20484;-76
2022/07/30 04:11:42;;;;;;;2.58;1.55;;;;;;;17.99;53.43;99748.94;5052189;28;20070;-76
2022/07/30 04:14:09;;;;;;;4.30;1.50;;;;;;;18.03;53.23;99744.22;5033966;28;20075;-76
2022/07/30 04:16:46;;;;;;;5.47;1.58;;;;;;;18.11;52.93;99749.56;5052622;28;20045;-76
2022/07/30 04:19:28;;;;;;;4.57;1.85;;;;;;;18.15;52.59;99752.44;5052154;28;20044;-76
2022/07/30 04:21:57;;;;;;;3.15;1.48;;;;;;;18.20;52.46;99740.84;5051712;28;20513;-76
2022/07/30 04:24:25;;;;;;;6.93;1.90;;;;;;;18.26;52.21;99738.53;5051892;28;20045;-76
2022/07/30 04:26:53;;;;;;;3.15;1.45;;;;;;;18.28;52.24;99748.22;5051735;28;20049;-76
2022/07/30 04:29:20;;;;;;;4.57;1.70;;;;;;;18.37;51.95;99743.16;5034099;28;20052;-76
2022/07/30 04:31:54;;;;;;;4.55;1.60;;;;;;;18.52;51.51;99744.16;5052296;28;20140;-77
2022/07/30 04:34:21;;;;;;;7.97;2.10;;;;;;;18.57;51.13;99739.03;5072007;28;20044;-77
2022/07/30 04:36:48;;;;;;;20.90;5.18;;;;;;;18.63;50.96;99748.78;5056870;28;20141;-77
2022/07/30 04:39:14;;;;;;;12.27;4.13;;;;;;;18.72;50.61;99742.84;5075261;28;20052;-77
2022/07/30 04:41:42;;;;;;;11.25;3.17;;;;;;;18.82;50.29;99751.44;5075726;28;20072;-68
2022/07/30 04:44:17;;;;;;;5.93;2.38;;;;;;;18.92;49.93;99742.31;5057638;28;20052;-67
2022/07/30 04:46:45;;;;;;;4.85;1.70;;;;;;;18.95;49.81;99750.00;5055557;28;20135;-69
2022/07/30 04:49:16;;;;;;;3.40;1.50;;;;;;;19.01;49.25;99751.28;5055249;28;20069;-67
2022/07/30 04:51:44;;;;;;;3.95;1.75;;;;;;;19.08;48.99;99751.41;5055334;28;20072;-68
2022/07/30 04:54:14;;;;;;;3.33;1.38;;;;;;;19.15;48.89;99745.81;5055023;28;20132;-68
2022/07/30 04:56:46;;;;;;;3.10;1.45;;;;;;;19.25;48.03;99749.97;5055491;28;20057;-68
2022/07/30 04:59:22;;;;;;;3.78;1.73;;;;;;;19.35;46.92;99750.13;5055490;28;20049;-69
2022/07/30 05:01:51;;;;;;;2.90;1.67;;;;;;;19.44;46.47;99749.81;5055476;28;20045;-68
2022/07/30 05:04:20;;;;;;;3.38;1.55;;;;;;;19.56;46.13;99756.00;5062055;28;20078;-68
2022/07/30 05:06:48;;;;;;;5.72;1.35;;;;;;;19.64;45.50;99763.34;5074701;28;20048;-68
2022/07/30 05:09:16;;;;;;;3.83;1.30;;;;;;;19.75;45.20;99766.28;5075244;28;20061;-68
2022/07/30 05:11:50;;;;;;;3.25;1.30;;;;;;;19.86;45.07;99759.53;5075012;28;20090;-68
2022/07/30 05:14:17;;;;;;;5.10;1.60;;;;;;;19.96;45.17;99764.44;5056707;28;20136;-69
2022/07/30 05:16:44;;;;;;;5.75;1.60;;;;;;;20.15;44.68;99760.63;5074691;28;20414;-69
2022/07/30 05:19:19;;;;;;;3.20;1.30;;;;;;;20.38;43.92;99757.56;5075105;28;20139;-68
2022/07/30 05:21:46;;;;;;;5.13;1.48;;;;;;;20.48;43.42;99756.81;5074746;28;20055;-68
2022/07/30 05:24:13;;;;;;;24.40;4.20;;;;;;;20.60;42.92;99762.19;5074539;28;20131;-69
2022/07/30 05:26:40;;;;;;;5.60;1.17;;;;;;;20.78;42.35;99760.25;5074884;28;20048;-69
2022/07/30 05:29:07;;;;;;;28.05;2.80;;;;;;;21.00;41.83;99771.31;5074436;28;20048;-75
2022/07/30 05:31:34;;;;;;;3.55;1.55;;;;;;;21.22;41.13;99770.19;5074775;28;20072;-68
2022/07/30 05:34:03;;;;;;;5.38;3.10;;;;;;;21.45;40.66;99762.19;5074548;28;20395;-68
2022/07/30 05:36:30;;;;;;;8.35;1.45;;;;;;;21.70;39.93;99759.41;5074540;28;20065;-65
2022/07/30 05:38:57;;;;;;;5.68;1.05;;;;;;;22.00;39.28;99759.91;5054810;28;20072;-68
2022/07/30 05:41:26;;;;;;;4.32;1.13;;;;;;;22.27;38.73;99758.28;5054319;28;20041;-69
2022/07/30 05:44:00;;;;;;;2.35;0.95;;;;;;;22.62;38.22;99763.94;5053959;28;20141;-68
2022/07/30 05:46:29;;;;;;;3.08;1.00;;;;;;;22.65;38.05;99763.13;5054327;28;20049;-69
2022/07/30 05:48:56;;;;;;;3.90;1.17;;;;;;;22.92;37.49;99767.09;5053711;28;20075;-69
2022/07/30 05:51:23;;;;;;;1.77;0.90;;;;;;;23.13;36.90;99774.75;5054295;28;20044;-68
2022/07/30 05:53:50;;;;;;;3.70;1.00;;;;;;;23.38;36.56;99766.16;5053861;28;20045;-68
2022/07/30 05:56:17;;;;;;;1.95;1.00;;;;;;;23.61;36.50;99770.09;5054036;28;20411;-69
2022/07/30 05:58:44;;;;;;;2.13;0.80;;;;;;;23.97;35.87;99765.00;5053997;28;20079;-69
2022/07/30 06:01:11;;;;;;;8.80;2.97;;;;;;;24.41;35.22;99768.72;5053917;28;20098;-68
2022/07/30 06:03:38;;;;;;;5.85;1.00;;;;;;;24.89;33.55;99771.50;5054455;28;20522;-68
2022/07/30 06:06:06;;;;;;;1.23;0.60;;;;;;;25.35;32.48;99771.81;5074032;28;20068;-69
2022/07/30 06:08:33;;;;;;;3.35;1.30;;;;;;;25.51;31.73;99762.63;5074156;28;20086;-76
2022/07/30 06:11:00;;;;;;;7.47;0.80;;;;;;;26.22;30.16;99775.44;5073826;28;20457;-78
2022/07/30 06:13:27;;;;;;;3.10;1.00;;;;;;;28.32;27.39;99760.97;5073502;28;20048;-78
2022/07/30 06:15:54;;;;;;;1.67;0.68;;;;;;;32.70;22.01;99759.59;5073401;28;20040;-76
2022/07/30 06:18:21;;;;;;;1.65;0.70;;;;;;;33.19;21.17;99756.63;5065678;28;20044;-69
2022/07/30 06:20:50;;;;;;;3.70;1.20;;;;;;;31.02;23.39;99754.78;5073271;28;20511;-68
2022/07/30 06:23:18;;;;;;;2.38;0.90;;;;;;;30.17;24.39;99751.91;5073433;28;20052;-68
2022/07/30 06:25:49;;;;;;;6.70;1.48;;;;;;;29.90;24.84;99759.41;5073412;28;20062;-76
2022/07/30 06:28:17;;;;;;;2.67;0.65;;;;;;;29.26;25.25;99759.69;5054095;28;20044;-69
2022/07/30 06:31:05;;;;;;;1.20;0.95;;;;;;;28.97;25.80;99764.56;5053256;28;20045;-69
2022/07/30 06:33:32;;;;;;;5.10;0.90;;;;;;;29.04;25.74;99758.66;5053047;28;20057;-69
2022/07/30 06:35:59;;;;;;;5.93;0.90;;;;;;;28.33;26.22;99754.00;5051630;28;20056;-68
2022/07/30 06:38:27;;;;;;;7.85;1.00;;;;;;;27.55;27.14;99768.47;5053355;28;20423;-76
2022/07/30 06:40:54;;;;;;;4.75;1.20;;;;;;;26.78;28.39;99768.78;5052997;28;20455;-76
2022/07/30 06:43:27;;;;;;;2.30;0.70;;;;;;;26.97;28.24;99769.25;5045328;28;20461;-76
2022/07/30 06:45:54;;;;;;;2.15;0.98;;;;;;;27.78;27.02;99769.19;5035025;28;20055;-76
2022/07/30 06:48:21;;;;;;;2.40;0.70;;;;;;;27.25;27.89;99768.72;5044604;28;20106;-75
2022/07/30 06:50:49;;;;;;;3.28;1.10;;;;;;;26.45;29.36;99764.06;5052825;28;20053;-76
2022/07/30 06:53:16;;;;;;;3.70;0.80;;;;;;;25.98;30.15;99762.41;5037499;28;20059;-75
2022/07/30 06:55:43;;;;;;;5.35;0.85;;;;;;;26.06;30.31;99766.75;5072902;28;20049;-74
2022/07/30 06:58:09;;;;;;;2.25;0.90;;;;;;;26.12;30.02;99772.78;5072411;28;20044;-75
2022/07/30 07:00:36;;;;;;;6.25;0.85;;;;;;;28.15;27.47;99762.19;5054415;28;20048;-75
2022/07/30 07:03:03;;;;;;;2.15;0.70;;;;;;;30.31;24.42;99770.75;5072259;28;20071;-75
2022/07/30 07:05:37;;;;;;;1.30;0.70;;;;;;;30.45;24.43;99772.34;5054267;28;20483;-75
2022/07/30 07:08:04;;;;;;;3.38;1.45;;;;;;;29.82;24.56;99763.75;5052442;28;20053;-76
2022/07/30 07:10:31;;;;;;;1.85;0.70;;;;;;;29.06;26.04;99768.44;5052801;28;20500;-75
2022/07/30 07:12:59;;;;;;;3.60;1.00;;;;;;;28.15;27.29;99765.06;5052380;28;20063;-75
2022/07/30 07:15:26;;;;;;;5.50;1.08;;;;;;;28.15;27.55;99770.78;5052336;28;20076;-75
2022/07/30 07:18:03;;;;;;;3.15;0.93;;;;;;;32.55;22.07;99773.00;5052474;28;20458;-76
2022/07/30 07:20:31;;;;;;;3.30;0.80;;;;;;;31.81;23.00;99773.13;5052366;28;20060;-77
2022/07/30 07:22:58;;;;;;;2.30;0.70;;;;;;;30.24;24.88;99775.94;5052423;28;20045;-75
2022/07/30 07:25:26;;;;;;;2.17;0.90;;;;;;;28.13;27.25;99773.28;5052777;28;20053;-76
2022/07/30 07:27:52;;;;;;;3.08;0.52;;;;;;;30.21;25.21;99776.84;5052438;28;20045;-77
2022/07/30 07:30:40;;;;;;;1.23;0.80;;;;;;;31.61;23.15;99775.56;5052511;28;20044;-68
2022/07/30 07:33:08;;;;;;;3.03;0.90;;;;;;;34.31;20.17;99759.13;5052289;28;20083;-68
2022/07/30 07:35:35;;;;;;;6.90;0.70;;;;;;;31.50;22.92;99780.91;5052575;28;20152;-68
2022/07/30 07:38:15;;;;;;;12.60;0.80;;;;;;;28.85;26.08;99769.00;5052170;28;20052;-67
2022/07/30 07:40:42;;;;;;;4.32;1.05;;;;;;;33.82;20.83;99770.16;5067743;28;20076;-68
2022/07/30 07:43:09;;;;;;;8.00;1.35;;;;;;;34.28;19.76;99768.75;5064334;28;20048;-68
2022/07/30 07:45:36;;;;;;;2.20;0.70;;;;;;;31.29;22.86;99766.53;5052353;28;20576;-68
2022/07/30 07:48:03;;;;;;;2.00;0.90;;;;;;;34.09;20.20;99767.22;5051791;28;20053;-69
2022/07/30 07:50:30;;;;;;;2.28;0.90;;;;;;;38.10;16.46;99752.38;5052042;28;20098;-69
2022/07/30 07:52:57;;;;;;;4.43;0.82;;;;;;;41.25;14.13;99759.75;5052243;28;20061;-67
2022/07/30 07:55:24;;;;;;;1.75;0.80;;;;;;;38.92;15.92;99760.09;5052343;28;20507;-75
2022/07/30 07:57:51;;;;;;;6.60;0.90;;;;;;;39.18;15.39;99757.03;5051994;28;20418;-76
2022/07/30 08:00:19;;;;;;;;;;;;;;;43.03;12.52;99746.09;5052618;28;20051;-76
2022/07/30 08:02:47;;;;;;;1.10;0.70;;;;;;;46.41;10.04;99743.44;5051728;28;19929;-76
2022/07/30 08:05:15;;;;;;;1.30;0.65;;;;;;;41.26;12.98;99746.75;5066668;28;20114;-75
2022/07/30 08:07:45;;;;;;;;;;;;;;;41.08;13.75;99749.50;5072457;28;20529;-76
2022/07/30 08:10:14;;;;;;;11.20;0.98;;;;;;;41.92;12.31;99736.81;5072596;28;19931;-75
2022/07/30 08:12:42;;;;;;;2.35;1.00;;;;;;;45.51;10.12;99744.00;5058517;28;20458;-76
2022/07/30 08:15:09;;;;;;;2.78;1.00;;;;;;;47.98;8.71;99743.63;5075610;28;20078;-76
2022/07/30 08:17:44;;;;;;;6.72;0.90;;;;;;;49.97;7.50;99748.00;5075990;28;20071;-76
2022/07/30 08:20:12;;;;;;;4.55;1.00;;;;;;;51.07;6.78;99745.38;5075828;28;20519;-76
2022/07/30 08:22:40;;;;;;;7.40;1.13;;;;;;;52.13;6.01;99737.47;5075775;28;20048;-75
2022/07/30 08:25:07;;;;;;;3.45;0.90;;;;;;;50.93;6.45;99739.75;5075959;28;20055;-76
2022/07/30 08:27:34;;;;;;;3.22;1.33;;;;;;;50.87;6.46;99736.25;5058393;28;20140;-76
2022/07/30 08:30:06;;;;;;;4.65;1.10;;;;;;;52.10;5.94;99735.75;5075533;28;20078;-75
2022/07/30 08:32:33;;;;;;;1.35;0.90;;;;;;;53.41;4.94;99725.47;5070547;28;20056;-77
2022/07/30 08:35:01;;;;;;;2.42;1.20;;;;;;;54.45;4.54;99729.63;5055496;28;20561;-75
2022/07/30 08:37:28;;;;;;;7.32;1.50;;;;;;;55.21;4.22;99727.00;5055537;28;20187;-76
2022/07/30 08:39:55;;;;;;;5.82;1.40;;;;;;;55.71;4.19;99728.88;5055658;28;20536;-68
2022/07/30 08:42:22;;;;;;;;;;;;;;;55.84;3.98;99726.09;5047733;28;20087;-69
2022/07/30 08:44:52;;;;;;;2.50;1.20;;;;;;;51.99;5.79;99712.56;5055244;28;19924;-68
2022/07/30 08:47:22;;;;;;;2.60;1.05;;;;;;;46.33;8.41;99714.72;5055016;28;20407;-68
2022/07/30 08:49:49;;;;;;;3.13;0.82;;;;;;;40.95;11.95;99705.44;5055368;28;20078;-68
2022/07/30 08:52:18;;;;;;;3.65;0.93;;;;;;;37.72;14.27;99708.44;5054977;28;20075;-68
2022/07/30 08:54:45;;;;;;;4.28;0.70;;;;;;;35.24;16.23;99708.38;5070674;28;20055;-68
2022/07/30 08:57:13;;;;;;;2.75;0.93;;;;;;;33.73;17.65;99709.56;5074881;28;20456;-68
2022/07/30 08:59:40;;;;;;;9.80;1.10;;;;;;;35.29;16.10;99707.69;5074877;28;20048;-76
2022/07/30 09:02:29;;;;;;;2.22;0.82;;;;;;;37.81;14.14;99696.63;5074913;28;20295;-77
2022/07/30 09:04:56;;;;;;;8.88;0.90;;;;;;;35.65;15.86;99697.84;5062066;28;20053;-76
2022/07/30 09:07:24;;;;;;;1.90;1.20;;;;;;;39.50;12.73;99694.44;5054783;28;20053;-77
2022/07/30 09:09:51;;;;;;;1.60;0.70;;;;;;;43.36;10.04;99697.22;5055216;28;20061;-78
2022/07/30 09:12:40;;;;;;;4.95;0.85;;;;;;;40.35;11.68;99694.75;5054550;28;20052;-78
2022/07/30 09:15:19;;;;;;;1.23;0.75;;;;;;;36.42;14.50;99699.16;5054411;28;20068;-77
2022/07/30 09:17:49;;;;;;;;;;;;;;;33.56;16.93;99702.59;5037936;28;20061;-77
2022/07/30 09:20:17;;;;;;;3.25;0.93;;;;;;;31.64;19.18;99704.75;5055607;28;19935;-76
2022/07/30 09:22:50;;;;;;;2.60;0.80;;;;;;;30.50;19.98;99705.72;5053683;28;20140;-77
2022/07/30 09:25:44;;;;;;;2.40;0.90;;;;;;;29.33;21.74;99708.69;5054896;28;20068;-77
2022/07/30 09:28:14;;;;;;;3.45;0.90;;;;;;;28.46;22.65;99700.53;5047848;28;20106;-76
2022/07/30 09:30:46;;;;;;;4.93;1.27;;;;;;;31.96;19.59;99697.72;5036428;28;20053;-77
2022/07/30 09:33:13;;;;;;;15.40;5.63;;;;;;;39.28;13.08;99700.97;5054468;28;20508;-76
2022/07/30 09:35:44;;;;;;;6.28;1.00;;;;;;;44.03;9.94;99709.53;5054827;28;20049;-77
2022/07/30 09:38:11;;;;;;;3.63;0.93;;;;;;;47.14;8.21;99711.38;5054331;28;20515;-77
2022/07/30 09:40:38;;;;;;;4.97;0.77;;;;;;;49.07;6.89;99708.56;5054190;28;20130;-78
2022/07/30 09:43:10;;;;;;;1.40;1.10;;;;;;;47.81;7.22;99710.88;5054357;28;20045;-78
2022/07/30 09:45:54;;;;;;;4.00;0.60;;;;;;;42.38;9.71;99700.81;5054435;28;20132;-68
2022/07/30 09:48:26;;;;;;;1.60;0.65;;;;;;;38.14;12.24;99688.19;5054170;28;20415;-68
2022/07/30 09:50:54;;;;;;;3.17;0.80;;;;;;;35.53;14.13;99699.75;5054026;28;20547;-68
2022/07/30 09:53:23;;;;;;;1.02;0.60;;;;;;;33.59;15.68;99701.63;5054069;28;20080;-67
2022/07/30 09:55:50;;;;;;;0.90;0.50;;;;;;;32.39;16.29;99691.84;5054149;28;20048;-67
2022/07/30 09:58:17;;;;;;;1.95;0.85;;;;;;;31.41;17.94;99700.31;5054020;28;20080;-68
2022/07/30 10:00:57;;;;;;;3.40;0.70;;;;;;;30.63;19.07;99692.13;5054028;28;20155;-67
2022/07/30 10:03:31;;;;;;;3.67;0.80;;;;;;;30.02;19.80;99687.63;5053560;28;20575;-66
2022/07/30 10:06:08;;;;;;;2.95;0.80;;;;;;;29.31;20.52;99688.25;5053663;28;20077;-67
2022/07/30 10:08:51;;;;;;;1.65;0.70;;;;;;;28.73;21.61;99691.59;5035479;28;20176;-67
2022/07/30 10:11:24;;;;;;;6.05;2.50;;;;;;;28.31;22.68;99687.81;5054091;28;20057;-68
2022/07/30 10:13:58;;;;;;;1.92;0.73;;;;;;;27.98;23.23;99691.94;5053652;28;20474;-67
2022/07/30 10:16:26;;;;;;;1.38;0.70;;;;;;;27.76;23.89;99697.34;5053748;28;20053;-68
2022/07/30 10:18:58;;;;;;;3.05;0.98;;;;;;;27.45;24.08;99689.50;5053773;28;20052;-66
2022/07/30 10:21:27;;;;;;;1.80;1.00;;;;;;;26.99;24.56;99703.97;5053658;28;20053;-68
2022/07/30 10:23:58;;;;;;;2.72;0.70;;;;;;;26.73;24.49;99705.66;5053912;28;20099;-68
2022/07/30 10:26:26;;;;;;;0.93;0.57;;;;;;;26.63;24.69;99695.28;5053666;28;20052;-68
2022/07/30 10:28:54;;;;;;;2.10;0.83;;;;;;;26.39;24.50;99691.63;5053720;28;20459;-70
2022/07/30 10:31:21;;;;;;;1.23;0.77;;;;;;;26.26;24.45;99690.63;5053576;28;20291;-68
2022/07/30 10:34:09;;;;;;;4.00;2.53;;;;;;;26.19;24.95;99687.91;5032874;28;20421;-68
2022/07/30 10:36:40;;;;;;;4.47;0.82;;;;;;;26.57;24.49;99689.25;5033776;28;20052;-68
2022/07/30 10:39:12;;;;;;;2.15;0.88;;;;;;;26.67;23.93;99688.25;5015368;28;20160;-68
2022/07/30 10:41:50;;;;;;;6.07;0.82;;;;;;;26.56;24.05;99699.03;5033931;28;20152;-68
2022/07/30 10:45:04;;;;;;;2.67;0.80;;;;;;;26.27;24.72;99697.97;5052789;28;20045;-69
2022/07/30 10:47:32;;;;;;;3.05;0.68;;;;;;;26.04;24.48;99692.25;4972440;28;20047;-69
2022/07/30 10:50:13;;;;;;;2.70;0.82;;;;;;;25.98;24.88;99684.56;4972786;28;20498;-68
2022/07/30 10:52:52;;;;;;;1.15;0.88;;;;;;;25.82;24.88;99682.41;4972032;28;20408;-69
2022/07/30 10:55:23;;;;;;;4.60;0.90;;;;;;;25.70;25.06;99690.75;4972164;28;20055;-67
2022/07/30 10:58:12;;;;;;;1.52;0.82;;;;;;;25.85;24.78;99692.94;4971840;28;20054;-67
2022/07/30 11:00:51;;;;;;;2.53;0.77;;;;;;;26.09;24.69;99686.06;4971924;28;20051;-67
2022/07/30 11:03:28;;;;;;;4.25;0.80;;;;;;;25.85;24.84;99680.72;4971716;28;20489;-68
2022/07/30 11:06:13;;;;;;;1.58;0.88;;;;;;;25.37;25.14;99678.19;4970429;28;20524;-68
2022/07/30 11:08:47;;;;;;;4.55;0.75;;;;;;;25.52;24.37;99685.28;4972174;28;20141;-69
2022/07/30 11:11:19;;;;;;;2.50;0.90;;;;;;;25.83;24.37;99674.63;4972201;28;20135;-69
2022/07/30 11:14:06;;;;;;;1.08;0.65;;;;;;;25.86;24.50;99676.63;4971619;28;20180;-69
2022/07/30 11:16:33;;;;;;;2.80;0.80;;;;;;;25.74;24.63;99680.91;4971702;28;20055;-69
2022/07/30 11:19:16;;;;;;;1.77;0.90;;;;;;;25.70;25.28;99680.16;4972184;28;20083;-68
2022/07/30 11:22:26;;;;;;;2.65;1.40;;;;;;;25.74;25.26;99686.59;5012442;28;20606;-68
2022/07/30 11:24:53;;;;;;;1.30;0.80;;;;;;;25.70;24.82;99683.00;5032373;28;20045;-69
2022/07/30 11:27:40;;;;;;;7.95;4.75;;;;;;;25.68;25.41;99688.31;5032576;28;20089;-69
2022/07/30 11:30:14;;;;;;;4.75;0.90;;;;;;;25.59;24.68;99670.97;5015724;28;20057;-69
2022/07/30 11:33:15;;;;;;;3.33;0.90;;;;;;;25.41;24.67;99672.44;5043870;28;20041;-69
2022/07/30 11:36:06;;;;;;;3.75;0.95;;;;;;;25.48;24.82;99664.59;5052114;28;20049;-68
2022/07/30 11:38:58;;;;;;;4.13;0.80;;;;;;;25.55;24.83;99675.09;5052345;28;20458;-68
2022/07/30 11:41:32;;;;;;;5.32;0.90;;;;;;;25.59;25.05;99673.00;5032332;28;20050;-70
2022/07/30 11:44:28;;;;;;;1.90;0.80;;;;;;;25.53;24.79;99669.81;5032141;28;20412;-69
2022/07/30 11:46:55;;;;;;;1.27;0.80;;;;;;;25.31;24.97;99668.47;5017724;28;20516;-69
2022/07/30 11:49:23;;;;;;;5.03;0.80;;;;;;;25.22;25.23;99668.19;5036766;28;20051;-69
2022/07/30 11:51:50;;;;;;;8.55;1.40;;;;;;;25.30;25.04;99666.88;5036147;28;20083;-69
2022/07/30 11:54:17;;;;;;;4.90;1.75;;;;;;;25.43;24.84;99667.94;5049639;28;20060;-69